Tropical Cyclones
[Index]
Season 2019-2020 Tropical Cyclone UESI Track Map
Season 2019-2020 Summaries (Operational Data): [AU] [SIO] [SPAC] [SH]
<<- Previous TC | 2019-2020 Season | Next TC ->>

click for intensity scale information  Lat/long Grid: Show Hide

 Date Labels: Show Hide

Operational Tropical Cyclone Data

Name: UESI
Number: 2015

31 Jan 2020 18:00 UTC to 15 Feb 2020 12:00 UTC

    date/time    lat    long     hPa   cat  kts
2020-01-31 18    8.3   153.8    1010         15          
2020-02-01 00    8.5   153.8    1010         15          
2020-02-01 06    8.8   153.9    1010         15          
2020-02-01 12    9.0   154.0    1010         15          
2020-02-01 18    9.3   154.2    1010         15          
2020-02-02 00    9.5   154.6    1010         15          
2020-02-02 06   10.8   155.2    1005         15          
2020-02-02 12   12.5   156.0    1008         15          
2020-02-02 18   14.2   158.0    1007         15          
2020-02-03 00   15.2   159.0    1006         15          
2020-02-03 06   16.4   160.0    1010         15          
2020-02-03 12   17.7   160.9    1007         15          
2020-02-03 18   16.8   161.2    1010         15          
2020-02-04 00   16.2   160.6    1010         15          
2020-02-04 06   15.7   160.1    1010         15          
2020-02-04 12   15.1   159.7    1010         15          
2020-02-04 18   14.1   160.1    1002         15          
2020-02-05 00   13.8   160.3    1004         15          
2020-02-05 06   13.7   160.6    1002         20          
2020-02-05 12   13.7   160.9    1005         20          
2020-02-05 18   13.7   161.2    1003         20          
2020-02-06 00   13.9   161.4    1003         20          
2020-02-06 06   13.6   162.1    1002         20          
2020-02-06 12   13.5   163.0    1003         20          
2020-02-06 18   13.3   164.0    1003         20          
2020-02-07 00   13.2   164.4    1005         20          
2020-02-07 06   13.6   165.1    1000         20          
2020-02-07 12   13.0   162.6    1002         20          
2020-02-07 18   13.2   163.1     999         25          
2020-02-08 00   13.5   163.4    1000         25          
2020-02-08 06   13.9   163.6     997         25          
2020-02-08 12   14.3   163.6     998         30          
2020-02-08 18   14.7   163.6     996         30          
2020-02-09 00   15.0   163.4     996    1    35          
2020-02-09 06   15.4   163.5     993    1    40          
2020-02-09 12   15.8   163.7     994    1    40          
2020-02-09 18   16.4   163.6     986    2    55          
2020-02-10 00   17.0   163.0     986    2    55          
2020-02-10 06   17.2   162.7     982    2    60          
2020-02-10 12   17.6   162.5     979    3    65          
2020-02-10 18   18.1   162.5     978    3    65          
2020-02-11 00   18.9   162.5     974    3    75          
2020-02-11 06   19.6   162.6     971    3    75          
2020-02-11 12   20.5   162.7     972    3    75          
2020-02-11 18   21.6   162.7     972    3    75          
2020-02-12 00   22.6   162.5     976    3    70          
2020-02-12 06   23.4   162.2     973    3    70          
2020-02-12 12   24.4   161.9     975    2    60          
2020-02-12 18   25.9   161.7     977    2    55          
2020-02-13 00   27.4   161.1     980    2    55          
2020-02-13 06   28.8   160.6     979    2    55          
2020-02-13 12   30.3   160.3     977    2    55          
2020-02-13 18   31.6   159.6     979    2    50          
2020-02-14 00   32.8   158.5     980    2    50          
2020-02-14 06   33.8   158.6     979    2    50          
2020-02-14 12   34.8   158.9     980    2    50          
2020-02-14 18   36.0   159.2     981    1    45          
2020-02-15 00   37.4   159.4     987    1    40          
2020-02-15 06   39.3   160.4     981    1    35          
2020-02-15 12   40.6   161.2     996    1    35          
Winds are 10-min average.

Tropical cyclone tracks developed by Michael Bath using operational warnings and advisories and Google Maps.


Document: tropical_cyclone_uesi.htm
Updated: 17 June 2020
[Australian Severe Weather index] [Copyright Notice] [Email Contacts] [Search This Site] [Privacy Policy]


Main Index Home Page Stock Weather Photos Extreme Storms Discussion Storm News and Storm Chasing Reports Tropical Cyclones / Hurricanes / Typhoons Weather Data and Links Wild Fires / Bushfires Weather Observation Techniques Weather Picture Catalogue Tornado Pictures and Reports Stock Video Footage and DVDs for sale